METAR Data
IDs: Format: Raw Decoded Include TAF

Data at: 2125 UTC 20 Nov 2018

KLXY 202115Z AUTO 02006KT 10SM CLR 15/01 A3029 RMK AO2 T01460011
KLXY 202055Z AUTO 02008KT 10SM CLR 15/01 A3029 RMK AO2 T01480009
KLXY 202035Z AUTO 02006G14KT 340V040 10SM CLR 15/01 A3030 RMK AO2 T01480010
KLXY 202015Z AUTO 01008KT 340V040 10SM CLR 15/02 A3030 RMK AO2 T01480016
KLXY 201955Z AUTO 02006KT 330V050 10SM CLR 15/01 A3031 RMK AO2 T01470013
KLXY 201935Z AUTO 02005KT 10SM CLR 14/01 A3031 RMK AO2 T01440012
KLXY 201915Z AUTO 04008KT 10SM CLR 14/01 A3032 RMK AO2 T01440006
KLXY 201855Z AUTO 36006G15KT 10SM CLR 14/01 A3033 RMK AO2 T01390009
KLXY 201835Z AUTO 35008KT 10SM CLR 14/01 A3034 RMK AO2 T01390008
KLXY 201815Z AUTO 03007KT 10SM CLR 13/01 A3036 RMK AO2 T01320012
KLXY 201755Z AUTO 34008G15KT 300V010 10SM CLR 13/02 A3037 RMK AO2 T01300020 10131 20031
KLXY 201735Z AUTO 36007G17KT 320V030 10SM CLR 13/02 A3038 RMK AO2 T01250022
KLXY 201715Z AUTO 33008KT 290V360 10SM CLR 12/03 A3038 RMK AO2 T01220027
KLXY 201655Z AUTO 32007G16KT 300V010 10SM CLR 11/02 A3039 RMK AO2 T01120024
KLXY 201635Z AUTO 03007G16KT 10SM CLR 11/02 A3039 RMK AO2 T01100022
KLXY 201615Z AUTO 33006KT 10SM CLR 10/03 A3039 RMK AO2 T01040025
KLXY 201555Z AUTO 34004KT 10SM CLR 09/03 A3039 RMK AO2 T00930033
KLXY 201535Z AUTO 33005KT 10SM CLR 09/03 A3038 RMK AO2 T00880028
KLXY 201515Z AUTO 34005KT 10SM CLR 08/03 A3037 RMK AO2 T00800025
KLXY 201455Z AUTO 36004KT 10SM CLR 07/02 A3036 RMK AO2 T00710023
KLXY 201435Z AUTO 35006KT 10SM CLR 06/02 A3036 RMK AO2 T00620021
KLXY 201415Z AUTO 36006KT 10SM CLR 06/02 A3035 RMK AO2 T00560018
KLXY 201355Z AUTO 36006KT 10SM CLR 05/02 A3034 RMK AO2 T00470015
KLXY 201335Z AUTO 35006KT 10SM CLR 04/01 A3034 RMK AO2 T00410010
KLXY 201315Z AUTO 35006KT 10SM CLR 04/01 A3033 RMK AO2 T00350010
KLXY 201255Z AUTO 35004KT 10SM CLR 03/01 A3032 RMK AO2 T00320008
KLXY 201235Z AUTO 34004KT 10SM CLR 03/01 A3031 RMK AO2 T00330007
KLXY 201215Z AUTO 34004KT 10SM CLR 04/01 A3030 RMK AO2 T00360007
KLXY 201155Z AUTO 34005KT 10SM CLR 04/01 A3030 RMK AO2 T00350007 10053 20030
KLXY 201135Z AUTO 34003KT 10SM CLR 03/01 A3030 RMK AO2 T00300007
KLXY 201115Z AUTO 33004KT 10SM CLR 03/01 A3029 RMK AO2 T00300007
KLXY 201055Z AUTO 00000KT 10SM CLR 03/01 A3029 RMK AO2 T00320007
KLXY 201035Z AUTO 33003KT 10SM CLR 03/01 A3028 RMK AO2 T00340007
KLXY 201015Z AUTO 33005KT 10SM CLR 04/01 A3028 RMK AO2 T00350009
KLXY 200955Z AUTO 33003KT 10SM CLR 03/01 A3028 RMK AO2 T00320008
KLXY 200935Z AUTO 33003KT 10SM CLR 04/01 A3028 RMK AO2 T00350008
KLXY 200915Z AUTO 32004KT 10SM CLR 03/01 A3028 RMK AO2 T00320007
KLXY 200855Z AUTO 00000KT 10SM CLR 04/01 A3028 RMK AO2 T00350005
KLXY 200835Z AUTO 00000KT 10SM CLR 04/01 A3028 RMK AO2 T00380006
KLXY 200815Z AUTO 33003KT 10SM CLR 04/01 A3028 RMK AO2 T00420007
KLXY 200755Z AUTO 33003KT 10SM CLR 04/01 A3027 RMK AO2 T00420007
KLXY 200735Z AUTO 33003KT 10SM CLR 05/01 A3027 RMK AO2 T00470010
KLXY 200715Z AUTO 34004KT 10SM CLR 05/01 A3027 RMK AO2 T00470011
KLXY 200655Z AUTO 34005KT 10SM CLR 05/01 A3027 RMK AO2 T00520011
KLXY 200635Z AUTO 33004KT 10SM CLR 05/01 A3027 RMK AO2 T00510011
KLXY 200615Z AUTO 34004KT 10SM CLR 05/01 A3026 RMK AO2 T00500010
KLXY 200555Z AUTO 00000KT 10SM CLR 05/01 A3026 RMK AO2 T00510007 10087 20051 401080040
KLXY 200535Z AUTO 34003KT 10SM CLR 06/01 A3026 RMK AO2 T00560007
KLXY 200515Z AUTO 34003KT 10SM CLR 06/01 A3025 RMK AO2 T00620009
KLXY 200455Z AUTO 35003KT 10SM CLR 07/01 A3025 RMK AO2 T00660008
KLXY 200435Z AUTO 33005KT 10SM CLR 07/01 A3024 RMK AO2 T00660010
KLXY 200415Z AUTO 33004KT 10SM CLR 07/01 A3024 RMK AO2 T00710011
KLXY 200355Z AUTO 34005KT 10SM CLR 07/01 A3023 RMK AO2 T00700011
KLXY 200335Z AUTO 32005KT 10SM CLR 07/01 A3023 RMK AO2 T00710012
KLXY 200315Z AUTO 32005KT 10SM CLR 07/01 A3023 RMK AO2 T00700014
KLXY 200255Z AUTO 31005KT 10SM CLR 07/02 A3023 RMK AO2 T00700016
KLXY 200235Z AUTO 33004KT 10SM CLR 07/02 A3022 RMK AO2 T00700016
KLXY 200215Z AUTO 00000KT 10SM CLR 07/02 A3022 RMK AO2 T00700019
KLXY 200155Z AUTO 32004KT 10SM CLR 08/02 A3022 RMK AO2 T00750020
KLXY 200135Z AUTO 32004KT 10SM CLR 08/02 A3021 RMK AO2 T00750023
KLXY 200115Z AUTO 00000KT 10SM CLR 08/03 A3020 RMK AO2 T00800025
KLXY 200055Z AUTO 32003KT 10SM CLR 08/03 A3020 RMK AO2 T00800026
KLXY 200035Z AUTO 00000KT 10SM CLR 09/03 A3019 RMK AO2 T00850025
KLXY 200015Z AUTO 32004KT 10SM CLR 09/03 A3018 RMK AO2 T00860029
KLXY 192355Z AUTO 00000KT 10SM CLR 09/03 A3018 RMK AO2 T00880031 10108 20079
KLXY 192335Z AUTO 00000KT 10SM CLR 10/03 A3018 RMK AO2 T00950031
KLXY 192315Z AUTO 00000KT 10SM CLR 10/02 A3017 RMK AO2 T01010024
KLXY 192255Z AUTO 00000KT 10SM CLR 10/02 A3017 RMK AO2 T01030022
KLXY 192235Z AUTO 30004KT 10SM CLR 11/02 A3017 RMK AO2 T01050021
KLXY 192215Z AUTO 28005KT 10SM CLR 11/02 A3016 RMK AO2 T01050023
KLXY 192155Z AUTO 30007KT 10SM CLR 11/02 A3016 RMK AO2 T01060022
KLXY 192135Z AUTO 31005KT 10SM CLR 11/03 A3016 RMK AO2 T01050025
KLXY 192115Z AUTO 32004KT 10SM SCT065 10/02 A3016 RMK AO2 T01020022
KLXY 192055Z AUTO 31006KT 10SM BKN031 BKN065 10/02 A3016 RMK AO2 LTG DSNT S T00980022
KLXY 192035Z AUTO 32006KT 10SM OVC031 10/02 A3017 RMK AO2 T01000021
KLXY 192015Z AUTO 31006G15KT 10SM OVC033 10/02 A3016 RMK AO2 T01010020
KLXY 191955Z AUTO 32006KT 10SM OVC033 10/02 A3017 RMK AO2 T01010019
KLXY 191935Z AUTO 32005KT 10SM OVC031 10/02 A3018 RMK AO2 T00950016
KLXY 191915Z AUTO 00000KT 10SM OVC031 09/02 A3019 RMK AO2 T00940015
KLXY 191855Z AUTO 01005KT 10SM OVC033 09/01 A3019 RMK AO2 T00870014
KLXY 191835Z AUTO 36003KT 10SM OVC035 09/01 A3021 RMK AO2 T00860014
KLXY 191815Z AUTO 00000KT 10SM OVC035 08/01 A3022 RMK AO2 T00800011
KLXY 191755Z AUTO 02005KT 10SM OVC037 08/01 A3023 RMK AO2 T00820011 10082 20045
KLXY 191735Z AUTO 03005KT 10SM SCT030 OVC039 07/01 A3023 RMK AO2 T00730010
KLXY 191715Z AUTO 02005KT 10SM OVC030 07/01 A3025 RMK AO2 T00690008
KLXY 191655Z AUTO 02006KT 10SM OVC030 07/01 A3026 RMK AO2 LTG DSNT SE T00680005
KLXY 191635Z AUTO 01005KT 10SM BKN031 OVC038 06/00 A3026 RMK AO2 LTG DSNT SE T00600001
KLXY 191615Z AUTO 00000KT 10SM BKN031 OVC042 06/00 A3026 RMK AO2 T00560000
KLXY 191555Z AUTO 36005KT 10SM BKN031 OVC040 06/00 A3024 RMK AO2 T00550001
KLXY 191535Z AUTO 01005KT 10SM OVC029 06/00 A3025 RMK AO2 T00550001
KLXY 191515Z AUTO 01005KT 10SM OVC029 05/00 A3024 RMK AO2 T00500001
KLXY 191455Z AUTO 01006KT 10SM OVC029 05/00 A3025 RMK AO2 T00480000
KLXY 191435Z AUTO 36009KT 10SM OVC029 05/00 A3024 RMK AO2 T00470000
KLXY 191415Z AUTO 01004KT 10SM OVC029 05/00 A3023 RMK AO2 T00480000
KLXY 191355Z AUTO 35006KT 10SM OVC029 05/00 A3023 RMK AO2 T00461001
KLXY 191335Z AUTO 35005KT 10SM OVC029 05/00 A3023 RMK AO2 T00461001
KLXY 191315Z AUTO 35006KT 10SM OVC029 05/00 A3022 RMK AO2 LTG DSNT SE T00451003
KLXY 191255Z AUTO 36007KT 10SM OVC029 05/00 A3022 RMK AO2 T00451003
KLXY 191235Z AUTO 35010G14KT 10SM OVC029 05/00 A3021 RMK AO2 LTG DSNT SE T00461002
KLXY 191215Z AUTO 34007KT 10SM OVC029 05/00 A3020 RMK AO2 T00461001
KLXY 191155Z AUTO 35007KT 10SM OVC029 05/00 A3019 RMK AO2 LTG DSNT SE T00470000 10055 20040
KLXY 191135Z AUTO 36006KT 10SM OVC029 05/00 A3018 RMK AO2 LTG DSNT SE T00460002
KLXY 191115Z AUTO 35007KT 10SM OVC029 05/01 A3019 RMK AO2 LTG DSNT E AND SE T00470008
KLXY 191055Z AUTO 33006KT 10SM VCTS OVC029 05/01 A3020 RMK AO2 LTG DSNT E AND SE T00460010
KLXY 191035Z AUTO 36006KT 10SM OVC031 05/01 A3019 RMK AO2 T00450010
KLXY 191015Z AUTO 34003KT 10SM OVC031 04/02 A3021 RMK AO2 LTG DSNT E T00420017
KLXY 190955Z AUTO 32003KT 10SM DZ OVC031 04/02 A3021 RMK AO2 T00410020
KLXY 190935Z AUTO 35003KT 10SM DZ OVC031 04/02 A3020 RMK AO2 T00400015